createdAt,value
2017-07-29T00:00:23.309Z,75.5
2017-07-29T00:01:24.895Z,76.2
2017-07-29T00:02:26.570Z,76.0
2017-07-29T00:03:28.228Z,75.9
2017-07-29T00:04:29.795Z,75.4
2017-07-29T00:05:31.556Z,74.8
2017-07-29T00:06:33.124Z,75.7
2017-07-29T00:07:34.818Z,75.3
2017-07-29T00:08:36.310Z,75.0
2017-07-29T00:09:38.059Z,75.1
2017-07-29T00:10:39.642Z,75.0
2017-07-29T00:11:41.369Z,73.1
2017-07-29T00:12:43.068Z,73.7
2017-07-29T00:13:44.755Z,74.1
2017-07-29T00:14:46.376Z,73.9
2017-07-29T00:15:48.070Z,73.7
2017-07-29T00:16:49.719Z,73.6
2017-07-29T00:17:51.345Z,73.5
2017-07-29T00:18:52.942Z,73.0
2017-07-29T00:19:54.627Z,73.4
2017-07-29T00:20:56.207Z,73.0
2017-07-29T00:21:57.803Z,72.6
2017-07-29T00:22:59.484Z,73.2
2017-07-29T00:24:01.022Z,73.1
2017-07-29T00:25:02.599Z,72.2
2017-07-29T00:26:04.241Z,72.3
2017-07-29T00:27:05.876Z,73.0
2017-07-29T00:28:07.475Z,72.9
2017-07-29T00:29:09.070Z,72.2
2017-07-29T00:30:10.784Z,72.3
2017-07-29T00:31:12.495Z,72.2
2017-07-29T00:32:14.176Z,72.0
2017-07-29T00:33:15.788Z,72.0
2017-07-29T00:34:18.515Z,72.3
2017-07-29T00:35:20.205Z,72.8
2017-07-29T00:36:21.882Z,72.9
2017-07-29T00:37:23.485Z,72.1
2017-07-29T00:38:25.218Z,72.8
2017-07-29T00:39:26.874Z,72.9
2017-07-29T00:40:28.577Z,73.0
2017-07-29T00:41:30.197Z,73.8
2017-07-29T00:42:31.866Z,73.9
2017-07-29T00:43:33.471Z,73.9
2017-07-29T00:44:35.171Z,73.7
2017-07-29T00:45:36.685Z,74.1
2017-07-29T00:46:39.306Z,73.9
2017-07-29T00:47:40.928Z,74.0
2017-07-29T00:48:42.584Z,75.0
2017-07-29T00:49:49.905Z,74.5
2017-07-29T00:50:51.543Z,74.8
2017-07-29T00:51:53.241Z,74.7
2017-07-29T00:52:54.843Z,75.1
2017-07-29T00:53:56.467Z,75.2
2017-07-29T00:54:58.042Z,76.4
2017-07-29T00:55:59.751Z,75.2
2017-07-29T00:57:01.335Z,76.0
2017-07-29T00:58:02.898Z,75.4
2017-07-29T00:59:04.506Z,75.4
2017-07-29T01:00:06.113Z,76.1
2017-07-29T01:01:07.693Z,76.0
2017-07-29T01:02:10.351Z,76.3
2017-07-29T01:03:11.920Z,76.7
2017-07-29T01:04:13.555Z,76.5
2017-07-29T01:05:15.171Z,76.5
2017-07-29T01:06:16.773Z,76.7
2017-07-29T01:07:18.299Z,76.5
2017-07-29T01:08:20.015Z,76.5
2017-07-29T01:09:21.581Z,76.9
2017-07-29T01:10:23.226Z,76.1
2017-07-29T01:11:24.852Z,77.0
2017-07-29T01:12:26.506Z,76.5
2017-07-29T01:13:28.073Z,76.9
2017-07-29T01:14:29.744Z,76.7
2017-07-29T01:15:31.337Z,77.0
2017-07-29T01:16:33.980Z,76.9
2017-07-29T01:17:35.576Z,76.6
2017-07-29T01:18:37.233Z,76.9
2017-07-29T01:19:38.796Z,77.1
2017-07-29T01:20:40.454Z,77.1
2017-07-29T01:21:42.059Z,77.4
2017-07-29T01:22:43.705Z,77.7
2017-07-29T01:23:45.306Z,78.0
2017-07-29T01:24:46.892Z,77.9
2017-07-29T01:25:48.457Z,77.9
2017-07-29T01:26:50.033Z,77.7
2017-07-29T01:27:51.667Z,78.0
2017-07-29T01:28:53.290Z,78.2
2017-07-29T01:29:54.823Z,77.6
2017-07-29T01:30:56.511Z,77.7
2017-07-29T01:31:58.103Z,77.3
2017-07-29T01:32:59.812Z,77.6
2017-07-29T01:34:01.391Z,78.1
2017-07-29T01:35:03.062Z,77.8
2017-07-29T01:36:04.623Z,78.0
2017-07-29T01:37:06.318Z,78.2
2017-07-29T01:38:07.979Z,78.9
2017-07-29T01:39:09.760Z,78.1
2017-07-29T01:40:11.310Z,78.0
2017-07-29T01:41:12.969Z,78.5
2017-07-29T01:42:14.593Z,78.5
2017-07-29T01:43:16.245Z,78.6
2017-07-29T01:44:17.919Z,78.7
2017-07-29T01:45:19.539Z,78.0
2017-07-29T01:46:21.139Z,78.0
2017-07-29T01:47:22.775Z,78.8
2017-07-29T01:48:24.490Z,78.5
2017-07-29T01:49:26.113Z,78.9
2017-07-29T01:50:27.708Z,78.7
2017-07-29T01:51:29.432Z,78.9
2017-07-29T01:52:30.984Z,78.9
2017-07-29T01:53:32.631Z,79.3
2017-07-29T01:54:34.236Z,79.4
2017-07-29T01:55:35.928Z,79.4
2017-07-29T01:56:37.575Z,79.6
2017-07-29T01:57:39.293Z,79.3
2017-07-29T01:58:40.871Z,79.4
2017-07-29T01:59:42.563Z,80.0
2017-07-29T02:00:44.150Z,79.4
2017-07-29T02:01:45.868Z,79.1
2017-07-29T02:02:47.529Z,79.4
2017-07-29T02:03:49.156Z,79.4
2017-07-29T02:04:50.804Z,79.2
2017-07-29T02:05:53.418Z,79.4
2017-07-29T02:06:55.022Z,79.7
2017-07-29T02:07:56.652Z,79.7
2017-07-29T02:08:58.203Z,79.4
2017-07-29T02:09:59.878Z,80.0
2017-07-29T02:11:01.504Z,79.3
2017-07-29T02:12:03.190Z,79.5
2017-07-29T02:13:04.850Z,79.0
2017-07-29T02:14:06.462Z,78.9
2017-07-29T02:15:08.094Z,77.9
2017-07-29T02:16:09.757Z,76.7
2017-07-29T02:17:11.390Z,75.6
2017-07-29T02:18:13.137Z,75.6
2017-07-29T02:19:14.752Z,76.4
2017-07-29T02:20:16.349Z,75.9
2017-07-29T02:21:17.998Z,76.2
2017-07-29T02:22:19.637Z,76.6
2017-07-29T02:23:21.222Z,76.6
2017-07-29T02:24:22.909Z,76.3
2017-07-29T02:25:24.545Z,76.4
2017-07-29T02:26:26.279Z,77.0
2017-07-29T02:27:27.849Z,76.8
2017-07-29T02:28:29.535Z,77.5
2017-07-29T02:29:31.081Z,77.2
2017-07-29T02:30:32.701Z,76.8
2017-07-29T02:31:34.269Z,76.9
2017-07-29T02:32:35.939Z,78.3
2017-07-29T02:33:37.554Z,78.0
2017-07-29T02:34:39.169Z,77.1
2017-07-29T02:35:40.778Z,77.9
2017-07-29T02:36:43.419Z,78.0
2017-07-29T02:37:44.961Z,76.7
2017-07-29T02:38:46.597Z,75.3
2017-07-29T02:39:48.141Z,76.0
2017-07-29T02:40:49.752Z,77.1
2017-07-29T02:41:51.258Z,76.8
2017-07-29T02:42:52.897Z,76.4
2017-07-29T02:43:54.488Z,75.8
2017-07-29T02:44:56.184Z,75.6
2017-07-29T02:45:57.812Z,75.0
2017-07-29T02:46:59.401Z,75.1
2017-07-29T02:48:01.031Z,75.4
2017-07-29T02:49:02.799Z,75.7
2017-07-29T02:50:04.327Z,76.0
2017-07-29T02:51:05.931Z,76.5
2017-07-29T02:52:07.512Z,76.8
2017-07-29T02:53:10.234Z,76.7
2017-07-29T02:54:11.911Z,77.2
2017-07-29T02:55:13.659Z,77.0
2017-07-29T02:56:15.185Z,76.4
2017-07-29T02:57:16.852Z,76.5
2017-07-29T02:58:18.456Z,76.5
2017-07-29T02:59:20.178Z,76.5
2017-07-29T03:00:21.766Z,75.4
2017-07-29T03:01:23.379Z,76.6
2017-07-29T03:02:24.948Z,73.8
2017-07-29T03:03:26.595Z,73.8
2017-07-29T03:04:28.167Z,74.1
2017-07-29T03:05:29.939Z,74.6
2017-07-29T03:06:31.530Z,75.2
2017-07-29T03:07:33.128Z,75.8
2017-07-29T03:08:34.665Z,75.6
2017-07-29T03:09:36.208Z,76.2
2017-07-29T03:10:37.821Z,75.6
2017-07-29T03:11:40.498Z,75.5
2017-07-29T03:12:42.123Z,76.3
2017-07-29T03:13:44.865Z,76.1
2017-07-29T03:14:46.563Z,76.4
2017-07-29T03:15:48.402Z,76.9
2017-07-29T03:16:50.006Z,76.8
2017-07-29T03:17:51.607Z,77.0
2017-07-29T03:18:53.231Z,76.8
2017-07-29T03:19:54.967Z,76.8
2017-07-29T03:20:56.530Z,75.3
2017-07-29T03:21:58.199Z,75.9
2017-07-29T03:22:59.793Z,76.1
2017-07-29T03:24:01.457Z,76.3
2017-07-29T03:25:02.982Z,75.8
2017-07-29T03:26:04.637Z,75.6
2017-07-29T03:27:06.240Z,75.8
2017-07-29T03:28:07.944Z,75.5
2017-07-29T03:29:09.533Z,75.7
2017-07-29T03:30:11.116Z,75.7
2017-07-29T03:31:12.727Z,75.7
2017-07-29T03:32:14.366Z,75.7
2017-07-29T03:33:15.892Z,75.3
2017-07-29T03:34:17.545Z,75.3
2017-07-29T03:35:19.127Z,75.3
2017-07-29T03:36:20.754Z,75.3
2017-07-29T03:37:22.424Z,75.7
2017-07-29T03:38:24.006Z,75.6
2017-07-29T03:39:25.662Z,75.3
2017-07-29T03:40:27.327Z,75.4
2017-07-29T03:41:28.897Z,75.4
2017-07-29T03:42:30.450Z,75.4
2017-07-29T03:43:32.131Z,75.4
2017-07-29T03:44:33.803Z,75.7
2017-07-29T03:45:35.449Z,75.6
2017-07-29T03:46:37.135Z,75.5
2017-07-29T03:47:38.765Z,75.3
2017-07-29T03:48:40.433Z,75.5
2017-07-29T03:49:42.085Z,75.1
2017-07-29T03:50:43.697Z,75.0
2017-07-29T03:51:45.336Z,74.9
2017-07-29T03:52:46.957Z,75.3
2017-07-29T03:53:48.552Z,75.5
2017-07-29T03:54:51.263Z,75.6
2017-07-29T03:55:52.849Z,75.5
2017-07-29T03:56:54.420Z,75.7
2017-07-29T03:57:55.998Z,75.3
2017-07-29T03:58:57.591Z,75.6
2017-07-29T03:59:59.177Z,75.6
2017-07-29T04:01:00.806Z,75.6
2017-07-29T04:02:02.468Z,75.0
2017-07-29T04:03:04.060Z,75.1
2017-07-29T04:04:05.592Z,75.3
2017-07-29T04:05:07.201Z,75.5
2017-07-29T04:06:08.868Z,75.3
2017-07-29T04:07:10.469Z,76.4
2017-07-29T04:08:12.172Z,75.7
2017-07-29T04:09:13.741Z,75.4
2017-07-29T04:10:15.254Z,76.0
2017-07-29T04:11:18.411Z,75.3
2017-07-29T04:12:20.104Z,76.1
2017-07-29T04:13:21.730Z,76.0
2017-07-29T04:14:23.326Z,76.0
2017-07-29T04:15:24.915Z,76.1
2017-07-29T04:16:26.495Z,76.1
2017-07-29T04:17:28.075Z,76.6
2017-07-29T04:18:29.744Z,76.9
2017-07-29T04:19:31.306Z,77.0
2017-07-29T04:20:32.906Z,76.8
2017-07-29T04:21:34.504Z,76.4
2017-07-29T04:22:36.187Z,76.6
2017-07-29T04:23:37.748Z,76.6
2017-07-29T04:24:39.338Z,76.5
2017-07-29T04:25:41.054Z,76.9
2017-07-29T04:26:42.647Z,76.5
2017-07-29T04:27:44.212Z,77.1
2017-07-29T04:28:45.786Z,76.1
2017-07-29T04:29:47.476Z,76.0
2017-07-29T04:30:49.093Z,76.2
2017-07-29T04:31:50.787Z,75.9
2017-07-29T04:32:52.288Z,75.9
2017-07-29T04:33:53.956Z,75.6
2017-07-29T04:34:55.541Z,75.9
2017-07-29T04:35:57.115Z,76.2
2017-07-29T04:36:58.708Z,76.2
2017-07-29T04:38:00.343Z,75.3
2017-07-29T04:39:01.983Z,75.3
2017-07-29T04:40:03.647Z,75.4
2017-07-29T04:41:05.178Z,75.5
2017-07-29T04:42:06.804Z,75.7
2017-07-29T04:43:08.364Z,75.4
2017-07-29T04:44:10.039Z,76.0
2017-07-29T04:45:11.725Z,75.8
2017-07-29T04:46:13.395Z,76.1
2017-07-29T04:47:14.965Z,75.4
2017-07-29T04:48:16.598Z,75.1
2017-07-29T04:49:18.247Z,75.6
2017-07-29T04:50:19.925Z,75.3
2017-07-29T04:51:21.567Z,75.6
2017-07-29T04:52:23.266Z,75.5
2017-07-29T04:53:24.865Z,75.3
2017-07-29T04:54:26.567Z,75.5
2017-07-29T04:55:28.174Z,75.2
2017-07-29T04:56:29.861Z,75.2
2017-07-29T04:57:31.457Z,75.3
2017-07-29T04:58:33.069Z,75.3
2017-07-29T04:59:34.635Z,75.3
2017-07-29T05:00:36.337Z,75.3
2017-07-29T05:01:37.952Z,75.7
2017-07-29T05:02:39.679Z,75.5
2017-07-29T05:03:41.279Z,75.7
2017-07-29T05:04:42.886Z,75.5
2017-07-29T05:05:44.468Z,75.6
2017-07-29T05:06:46.095Z,75.6
2017-07-29T05:07:47.744Z,75.1
2017-07-29T05:08:49.301Z,75.4
2017-07-29T05:09:50.890Z,75.0
2017-07-29T05:10:52.593Z,75.3
2017-07-29T05:11:54.239Z,74.6
2017-07-29T05:12:55.800Z,74.1
2017-07-29T05:13:57.424Z,74.5
2017-07-29T05:14:59.048Z,74.7
2017-07-29T05:16:00.656Z,74.5
2017-07-29T05:17:02.292Z,74.8
2017-07-29T05:18:03.909Z,74.3
2017-07-29T05:19:05.785Z,74.3
2017-07-29T05:20:07.513Z,74.5
2017-07-29T05:21:09.028Z,74.3
2017-07-29T05:22:10.756Z,74.1
2017-07-29T05:23:12.359Z,74.1
2017-07-29T05:24:13.997Z,75.1
2017-07-29T05:25:15.692Z,74.8
2017-07-29T05:26:17.432Z,73.7
2017-07-29T05:27:19.159Z,74.2
2017-07-29T05:28:20.788Z,73.9
2017-07-29T05:29:22.466Z,73.7
2017-07-29T05:30:24.207Z,73.9
2017-07-29T05:31:25.827Z,73.3
2017-07-29T05:32:27.469Z,73.0
2017-07-29T05:33:29.251Z,72.9
2017-07-29T05:34:30.840Z,73.2
2017-07-29T05:35:32.607Z,73.1
2017-07-29T05:36:34.257Z,72.8
2017-07-29T05:37:35.930Z,72.4
2017-07-29T05:38:38.179Z,72.5
2017-07-29T05:39:39.735Z,73.1
2017-07-29T05:40:41.813Z,72.6
2017-07-29T05:41:43.902Z,73.0
2017-07-29T05:42:46.054Z,72.9
2017-07-29T05:43:48.038Z,72.9
2017-07-29T05:44:50.076Z,72.7
2017-07-29T05:45:52.032Z,72.7
2017-07-29T05:46:54.228Z,72.9
2017-07-29T05:47:56.013Z,72.4
2017-07-29T05:48:57.927Z,72.9
2017-07-29T05:49:59.963Z,73.1
2017-07-29T05:51:02.070Z,72.9
2017-07-29T05:52:03.648Z,72.7
2017-07-29T05:53:05.261Z,72.9
2017-07-29T05:54:06.865Z,72.9
2017-07-29T05:55:08.462Z,72.8
2017-07-29T05:56:09.966Z,73.1
2017-07-29T05:57:11.596Z,73.2
2017-07-29T05:58:13.138Z,73.1
2017-07-29T05:59:14.823Z,73.1
2017-07-29T06:00:16.459Z,72.7
2017-07-29T06:01:18.079Z,72.2
2017-07-29T06:02:19.640Z,72.6
2017-07-29T06:03:21.293Z,71.7
2017-07-29T06:04:22.838Z,72.0
2017-07-29T06:05:24.483Z,71.9
2017-07-29T06:06:26.026Z,72.7
2017-07-29T06:07:27.707Z,72.5
2017-07-29T06:08:29.484Z,71.8
2017-07-29T06:09:31.086Z,72.3
2017-07-29T06:10:32.614Z,72.2
2017-07-29T06:11:34.340Z,71.8
2017-07-29T06:12:35.976Z,72.5
2017-07-29T06:13:37.651Z,71.7
2017-07-29T06:14:39.285Z,71.8
2017-07-29T06:15:41.053Z,71.6
2017-07-29T06:16:42.710Z,71.3
2017-07-29T06:17:44.301Z,70.6
2017-07-29T06:18:45.975Z,70.8
2017-07-29T06:19:47.652Z,71.0
2017-07-29T06:20:49.287Z,71.3
2017-07-29T06:21:51.004Z,70.8
2017-07-29T06:22:52.695Z,71.1
2017-07-29T06:23:54.288Z,70.9
2017-07-29T06:24:55.822Z,70.1
2017-07-29T06:25:57.488Z,69.7
2017-07-29T06:26:59.078Z,70.5
2017-07-29T06:28:00.748Z,70.1
2017-07-29T06:29:02.414Z,70.3
2017-07-29T06:30:04.150Z,70.4
2017-07-29T06:31:05.780Z,70.2
2017-07-29T06:32:07.396Z,70.3
2017-07-29T06:33:08.985Z,69.8
2017-07-29T06:34:10.692Z,70.1
2017-07-29T06:35:12.388Z,70.5
2017-07-29T06:36:13.986Z,70.6
2017-07-29T06:37:15.554Z,69.9
2017-07-29T06:38:17.288Z,70.0
2017-07-29T06:39:18.843Z,69.9
2017-07-29T06:40:20.441Z,69.5
2017-07-29T06:41:21.939Z,69.7
2017-07-29T06:42:23.515Z,69.7
2017-07-29T06:43:25.140Z,69.5
2017-07-29T06:44:26.810Z,69.8
2017-07-29T06:45:28.417Z,69.5
2017-07-29T06:46:30.945Z,70.1
2017-07-29T06:47:32.937Z,69.0
2017-07-29T06:48:35.485Z,68.8
2017-07-29T06:49:37.661Z,68.7
2017-07-29T06:50:39.626Z,68.5
2017-07-29T06:51:42.803Z,68.7
2017-07-29T06:52:46.008Z,68.7
2017-07-29T06:53:47.604Z,69.0
2017-07-29T06:54:49.405Z,68.2
2017-07-29T06:55:51.151Z,68.1
2017-07-29T06:56:52.851Z,68.6
2017-07-29T06:57:54.495Z,68.6
2017-07-29T06:58:56.120Z,68.5
2017-07-29T06:59:57.686Z,68.5
2017-07-29T07:00:59.275Z,68.6
2017-07-29T07:02:00.857Z,68.2
2017-07-29T07:03:02.419Z,68.5
2017-07-29T07:04:04.016Z,67.4
2017-07-29T07:05:05.656Z,68.6
2017-07-29T07:06:07.143Z,68.0
2017-07-29T07:07:08.889Z,67.8
2017-07-29T07:08:10.380Z,67.7
2017-07-29T07:09:12.000Z,67.5
2017-07-29T07:10:13.668Z,67.9
2017-07-29T07:11:15.192Z,68.0
2017-07-29T07:12:16.884Z,67.8
2017-07-29T07:13:18.494Z,68.0
2017-07-29T07:14:20.620Z,67.7
2017-07-29T07:15:22.664Z,67.7
2017-07-29T07:16:32.290Z,67.6
2017-07-29T07:17:34.044Z,67.6
2017-07-29T07:18:35.844Z,68.0
2017-07-29T07:19:37.507Z,68.3
2017-07-29T07:20:39.152Z,67.4
2017-07-29T07:21:40.840Z,67.8
2017-07-29T07:22:42.506Z,68.1
2017-07-29T07:23:44.125Z,67.7
2017-07-29T07:24:45.680Z,67.4
2017-07-29T07:25:47.313Z,68.6
2017-07-29T07:26:48.917Z,67.9
2017-07-29T07:27:50.549Z,67.7
2017-07-29T07:28:52.196Z,66.7
2017-07-29T07:29:53.754Z,67.3
2017-07-29T07:30:55.348Z,67.0
2017-07-29T07:31:56.892Z,67.4
2017-07-29T07:32:58.446Z,65.9
2017-07-29T07:33:59.976Z,66.2
2017-07-29T07:35:01.596Z,66.0
2017-07-29T07:36:03.173Z,66.4
2017-07-29T07:37:04.728Z,66.9
2017-07-29T07:38:06.296Z,66.1
2017-07-29T07:39:07.938Z,66.1
2017-07-29T07:40:09.540Z,66.5
2017-07-29T07:41:11.086Z,66.3
2017-07-29T07:42:12.678Z,66.0
2017-07-29T07:43:14.290Z,64.9
2017-07-29T07:44:15.902Z,64.8
2017-07-29T07:45:17.483Z,64.7
2017-07-29T07:46:19.166Z,64.8
2017-07-29T07:47:20.754Z,64.4
2017-07-29T07:48:22.293Z,64.6
2017-07-29T07:49:23.854Z,64.0
2017-07-29T07:50:25.420Z,63.8
2017-07-29T07:51:27.032Z,63.6
2017-07-29T07:52:28.874Z,63.2
2017-07-29T07:53:30.411Z,62.0
2017-07-29T07:54:32.086Z,62.4
2017-07-29T07:55:33.683Z,62.5
2017-07-29T07:56:35.275Z,61.4
2017-07-29T07:57:36.837Z,61.0
2017-07-29T07:58:38.405Z,60.4
2017-07-29T07:59:40.030Z,60.5
2017-07-29T08:00:41.669Z,60.3
2017-07-29T08:01:43.251Z,60.8
2017-07-29T08:02:44.958Z,60.6
2017-07-29T08:03:46.537Z,60.4
2017-07-29T08:04:48.176Z,59.3
2017-07-29T08:05:49.913Z,59.4
2017-07-29T08:06:51.572Z,58.9
2017-07-29T08:07:53.198Z,57.5
2017-07-29T08:08:54.828Z,57.5
2017-07-29T08:09:56.430Z,56.7
2017-07-29T08:10:58.126Z,57.0
2017-07-29T08:11:59.758Z,57.1
2017-07-29T08:13:01.447Z,57.0
2017-07-29T08:14:03.074Z,55.6
2017-07-29T08:15:04.709Z,55.6
2017-07-29T08:16:06.335Z,55.4
2017-07-29T08:17:08.081Z,55.9
2017-07-29T08:18:09.744Z,55.4
2017-07-29T08:19:11.391Z,55.6
2017-07-29T08:20:13.019Z,54.9
2017-07-29T08:21:14.662Z,54.5
2017-07-29T08:22:16.247Z,55.1
2017-07-29T08:22:52.844Z,54.8
2017-07-29T08:23:54.298Z,53.6
2017-07-29T08:24:55.764Z,52.4
2017-07-29T08:25:57.245Z,52.5
2017-07-29T08:26:58.745Z,52.2
2017-07-29T08:28:00.294Z,51.9
2017-07-29T08:29:01.821Z,53.7
2017-07-29T08:30:03.257Z,52.6
2017-07-29T08:31:04.691Z,53.6
2017-07-29T08:32:06.122Z,52.9
2017-07-29T08:33:07.583Z,52.8
2017-07-29T08:34:09.036Z,52.5
2017-07-29T08:35:10.638Z,51.3
2017-07-29T08:36:12.084Z,50.5
2017-07-29T08:37:13.540Z,50.5
2017-07-29T08:38:15.028Z,51.4
2017-07-29T08:39:16.526Z,50.7
2017-07-29T08:40:17.957Z,49.4
2017-07-29T08:41:19.434Z,49.0
2017-07-29T08:42:20.867Z,49.8
2017-07-29T08:43:22.378Z,50.1
2017-07-29T08:44:23.952Z,49.0
2017-07-29T08:45:25.465Z,48.3
2017-07-29T08:46:26.926Z,50.4
2017-07-29T08:47:28.552Z,48.9
2017-07-29T08:48:29.986Z,49.9
2017-07-29T08:49:31.436Z,51.1
2017-07-29T08:50:32.870Z,52.7
2017-07-29T08:51:34.320Z,51.3
2017-07-29T08:52:35.778Z,51.6
2017-07-29T08:53:37.345Z,50.5
2017-07-29T08:54:38.837Z,50.7
2017-07-29T08:55:40.364Z,50.2
2017-07-29T08:56:41.869Z,49.7
2017-07-29T08:57:43.381Z,49.0
2017-07-29T08:58:44.890Z,49.8
2017-07-29T08:59:46.344Z,49.2
2017-07-29T09:00:47.781Z,49.3
2017-07-29T09:01:50.250Z,50.2
2017-07-29T09:02:51.699Z,49.4
2017-07-29T09:03:53.225Z,49.1
2017-07-29T09:04:18.947Z,48.6
2017-07-29T09:05:20.486Z,48.6
2017-07-29T09:06:21.906Z,48.2
2017-07-29T09:07:23.398Z,47.8
2017-07-29T09:08:24.872Z,48.2
2017-07-29T09:09:26.357Z,47.2
2017-07-29T09:10:27.793Z,47.6
2017-07-29T09:11:30.260Z,48.2
2017-07-29T09:12:31.720Z,49.2
2017-07-29T09:13:33.239Z,48.7
2017-07-29T09:14:34.667Z,46.7
2017-07-29T09:15:36.126Z,47.8
2017-07-29T09:16:37.572Z,47.8
2017-07-29T09:17:39.085Z,47.6
2017-07-29T09:18:40.569Z,47.0
2017-07-29T09:19:42.101Z,46.6
2017-07-29T09:20:43.526Z,46.6
2017-07-29T09:21:45.077Z,47.7
2017-07-29T09:22:46.510Z,48.3
2017-07-29T09:23:48.095Z,48.5
2017-07-29T09:24:49.539Z,47.9
2017-07-29T09:25:51.049Z,46.5
2017-07-29T09:26:52.519Z,46.2
2017-07-29T09:27:54.004Z,46.7
2017-07-29T09:28:55.436Z,46.5
2017-07-29T09:29:56.908Z,45.4
2017-07-29T09:30:58.380Z,45.7
2017-07-29T09:31:59.887Z,46.3
2017-07-29T09:33:01.347Z,46.3
2017-07-29T09:34:02.957Z,45.9
2017-07-29T09:35:04.493Z,46.6
2017-07-29T09:36:06.170Z,47.3
2017-07-29T09:37:07.839Z,47.5
2017-07-29T09:38:09.515Z,47.5
2017-07-29T09:39:11.126Z,47.9
2017-07-29T09:40:13.064Z,47.5
2017-07-29T09:41:14.740Z,47.6
2017-07-29T09:42:16.444Z,46.0
2017-07-29T09:43:18.295Z,46.7
2017-07-29T09:44:20.148Z,47.0
2017-07-29T09:45:21.833Z,46.6
2017-07-29T09:46:23.611Z,46.3
2017-07-29T09:47:25.282Z,46.2
2017-07-29T09:48:26.961Z,46.0
2017-07-29T09:49:28.660Z,45.9
2017-07-29T09:50:31.551Z,45.8
2017-07-29T09:51:33.279Z,46.5
2017-07-29T09:52:34.864Z,46.2
2017-07-29T09:53:36.445Z,46.2
2017-07-29T09:54:38.133Z,46.7
2017-07-29T09:55:39.881Z,44.9
2017-07-29T09:56:46.134Z,45.9
2017-07-29T09:57:47.802Z,44.8
2017-07-29T09:58:49.489Z,44.6
2017-07-29T09:59:51.137Z,45.3
2017-07-29T10:00:52.795Z,45.3
2017-07-29T10:01:54.643Z,45.7
2017-07-29T10:02:56.402Z,45.7
2017-07-29T10:03:58.071Z,45.0
2017-07-29T10:04:59.798Z,44.1
2017-07-29T10:14:53.643Z,45.7
2017-07-29T10:15:55.090Z,46.5
2017-07-29T10:16:56.593Z,45.8
2017-07-29T10:17:58.057Z,45.8
2017-07-29T10:18:59.582Z,46.3
2017-07-29T10:20:01.074Z,45.3
2017-07-29T10:21:02.577Z,44.4
2017-07-29T10:22:03.999Z,44.8
2017-07-29T10:23:05.522Z,44.9
2017-07-29T10:24:07.005Z,44.8
2017-07-29T10:25:08.538Z,45.4
2017-07-29T10:26:09.993Z,45.1
2017-07-29T10:27:11.507Z,44.3
2017-07-29T10:28:12.971Z,44.1
2017-07-29T10:29:15.518Z,43.9
2017-07-29T10:30:16.938Z,45.8
2017-07-29T10:31:19.423Z,45.9
2017-07-29T10:32:20.901Z,45.5
2017-07-29T10:33:22.487Z,46.0
2017-07-29T10:34:23.972Z,44.9
2017-07-29T10:35:25.499Z,46.0
2017-07-29T10:36:27.143Z,44.0
2017-07-29T10:37:28.683Z,45.0
2017-07-29T10:38:30.122Z,44.8
2017-07-29T10:39:31.648Z,45.1
2017-07-29T10:40:33.151Z,45.1
2017-07-29T10:41:34.642Z,45.0
2017-07-29T10:42:36.076Z,45.4
2017-07-29T10:43:38.532Z,44.8
2017-07-29T10:44:39.954Z,44.0
2017-07-29T10:45:42.499Z,44.8
2017-07-29T10:46:43.963Z,44.7
2017-07-29T10:47:45.488Z,44.2
2017-07-29T10:48:46.946Z,45.4
2017-07-29T10:49:48.425Z,44.0
2017-07-29T10:50:49.886Z,45.2
2017-07-29T10:51:33.076Z,46.2
2017-07-29T10:52:01.761Z,46.2
2017-07-29T10:53:03.313Z,46.6
2017-07-29T10:54:04.726Z,45.5
2017-07-29T10:55:06.281Z,44.6
2017-07-29T10:56:08.033Z,44.8
2017-07-29T10:57:09.462Z,45.3
2017-07-29T10:58:11.290Z,43.8
2017-07-29T10:59:12.814Z,44.3
2017-07-29T11:00:14.565Z,44.5
2017-07-29T11:01:16.320Z,43.7
2017-07-29T11:02:17.887Z,44.7
2017-07-29T11:03:19.411Z,44.3
2017-07-29T11:04:20.907Z,44.1
2017-07-29T11:05:22.371Z,44.1
2017-07-29T11:06:23.882Z,43.9
2017-07-29T11:07:26.359Z,43.3
2017-07-29T11:08:28.456Z,43.6
2017-07-29T11:09:30.610Z,43.8
2017-07-29T11:10:32.287Z,43.0
2017-07-29T11:11:33.846Z,43.4
2017-07-29T11:12:36.791Z,43.3
2017-07-29T11:13:38.405Z,43.1
2017-07-29T11:14:40.746Z,43.5
2017-07-29T11:15:44.135Z,43.3
2017-07-29T11:16:45.845Z,43.7
2017-07-29T11:17:48.629Z,42.9
2017-07-29T11:18:50.400Z,43.2
2017-07-29T11:19:52.888Z,43.1
2017-07-29T11:20:55.208Z,42.6
2017-07-29T11:21:57.805Z,42.4
2017-07-29T11:22:59.515Z,42.9
2017-07-29T11:24:01.139Z,44.1
2017-07-29T11:25:05.399Z,43.5
2017-07-29T11:26:07.119Z,43.0
2017-07-29T11:27:08.696Z,42.6
2017-07-29T11:28:10.354Z,42.8
2017-07-29T11:29:12.065Z,43.0
2017-07-29T11:30:14.784Z,42.8
2017-07-29T11:31:16.466Z,44.1
2017-07-29T11:32:18.104Z,43.7
2017-07-29T11:33:19.811Z,43.6
2017-07-29T11:34:21.506Z,43.5
2017-07-29T11:35:23.228Z,44.0
2017-07-29T11:36:27.098Z,43.5
2017-07-29T11:37:29.031Z,42.6
2017-07-29T11:38:30.567Z,43.2
2017-07-29T11:39:32.177Z,43.6
2017-07-29T11:40:33.753Z,43.6
2017-07-29T11:41:35.434Z,43.0
2017-07-29T11:42:37.026Z,43.0
2017-07-29T11:43:38.755Z,43.2
2017-07-29T11:44:40.422Z,42.6
2017-07-29T11:45:42.111Z,43.2
2017-07-29T11:46:43.765Z,42.7
2017-07-29T11:47:45.367Z,42.2
2017-07-29T11:48:46.970Z,41.7
2017-07-29T11:49:48.606Z,42.9
2017-07-29T11:50:50.210Z,42.0
2017-07-29T11:51:51.798Z,42.6
2017-07-29T11:52:53.560Z,42.2
2017-07-29T11:53:55.178Z,42.7
2017-07-29T11:54:57.056Z,42.0
2017-07-29T11:55:58.769Z,42.1
2017-07-29T11:57:00.423Z,42.9
2017-07-29T11:58:01.994Z,43.6
2017-07-29T11:59:03.788Z,42.5
2017-07-29T12:00:05.435Z,43.0
2017-07-29T15:33:24.103Z,42.1
2017-07-29T15:34:25.560Z,41.4
2017-07-29T15:35:27.051Z,40.6
2017-07-29T15:36:28.519Z,40.9
2017-07-29T15:37:30.095Z,40.8
2017-07-29T15:38:31.559Z,40.3
2017-07-29T15:39:33.012Z,40.4
2017-07-29T15:40:34.509Z,40.4
2017-07-29T15:41:36.075Z,40.3
2017-07-29T15:42:37.539Z,40.1
2017-07-29T15:43:39.066Z,40.4
2017-07-29T15:44:40.512Z,40.4
2017-07-29T15:45:42.165Z,41.0
2017-07-29T15:46:43.575Z,41.6
2017-07-29T15:47:45.038Z,40.6
2017-07-29T15:48:46.618Z,40.9
2017-07-29T15:49:48.100Z,40.7
2017-07-29T15:50:49.575Z,41.1
2017-07-29T15:51:51.594Z,41.1
2017-07-29T15:52:53.042Z,41.1
2017-07-29T15:53:54.477Z,41.0
2017-07-29T15:54:55.918Z,41.7
2017-07-29T15:55:57.372Z,41.5
2017-07-29T15:56:58.814Z,41.3
2017-07-29T15:58:00.333Z,41.6
2017-07-29T15:59:01.850Z,41.1
2017-07-29T16:00:03.439Z,41.5
2017-07-29T16:01:04.892Z,41.1
2017-07-29T16:02:06.503Z,40.7
2017-07-29T16:03:07.949Z,40.8
2017-07-29T16:04:09.495Z,41.2
2017-07-29T16:05:10.941Z,40.9
2017-07-29T16:06:13.490Z,40.7
2017-07-29T16:07:14.923Z,41.0
2017-07-29T16:08:16.512Z,41.1
2017-07-29T16:09:17.934Z,40.8
2017-07-29T16:10:19.480Z,41.2
2017-07-29T16:11:20.910Z,40.7
2017-07-29T16:12:22.426Z,40.8
2017-07-29T16:13:23.852Z,40.8
2017-07-29T16:14:25.359Z,40.0
2017-07-29T16:15:26.772Z,39.7
2017-07-29T16:16:28.208Z,40.0
2017-07-29T16:17:29.715Z,40.1
2017-07-29T16:18:31.644Z,40.0
2017-07-29T16:19:34.464Z,40.8
2017-07-29T16:20:36.480Z,41.1
2017-07-29T16:21:38.349Z,41.8
2017-07-29T16:22:40.033Z,41.3
2017-07-29T16:23:41.697Z,40.3
2017-07-29T16:24:43.376Z,39.5
2017-07-29T16:25:44.949Z,39.4
2017-07-29T16:26:46.602Z,40.0
2017-07-29T16:27:48.229Z,40.3
2017-07-29T16:28:49.833Z,40.2
2017-07-29T16:29:51.405Z,40.3
2017-07-29T16:30:52.986Z,39.7
2017-07-29T16:31:54.507Z,39.8
2017-07-29T16:33:15.202Z,40.3
2017-07-29T16:34:16.621Z,40.8
2017-07-29T16:35:18.163Z,40.7
2017-07-29T16:36:19.581Z,40.1
2017-07-29T16:37:21.177Z,39.9
2017-07-29T16:38:22.586Z,40.6
2017-07-29T16:39:24.137Z,41.1
2017-07-29T16:40:25.982Z,40.7
2017-07-29T16:41:27.515Z,39.8
2017-07-29T16:42:28.948Z,39.6
2017-07-29T16:43:30.507Z,39.7
2017-07-29T16:44:31.914Z,39.1
2017-07-29T16:45:33.499Z,39.7
2017-07-29T16:46:34.914Z,41.2
2017-07-29T16:47:36.465Z,40.9
2017-07-29T16:48:37.874Z,41.3
2017-07-29T16:49:39.456Z,41.1
2017-07-29T16:50:41.339Z,41.9
2017-07-29T16:51:43.117Z,41.6
2017-07-29T16:52:22.821Z,40.8
2017-07-29T16:53:24.448Z,42.0
2017-07-29T16:54:26.004Z,41.5
2017-07-29T16:55:27.618Z,41.9
2017-07-29T16:56:29.047Z,41.7
2017-07-29T16:57:30.531Z,41.5
2017-07-29T16:58:32.034Z,41.7
2017-07-29T16:59:33.457Z,41.7
2017-07-29T17:00:34.929Z,40.8
2017-07-29T17:01:36.342Z,41.2
2017-07-29T17:02:37.798Z,40.7
2017-07-29T17:03:39.285Z,40.9
2017-07-29T17:04:40.732Z,39.8
2017-07-29T17:05:42.214Z,41.1
2017-07-29T17:06:43.645Z,40.8
2017-07-29T17:07:45.096Z,41.2
2017-07-29T17:08:46.535Z,40.7
2017-07-29T17:09:47.983Z,40.7
2017-07-29T17:10:49.398Z,41.2
2017-07-29T17:11:50.869Z,41.8
2017-07-29T17:12:52.286Z,41.5
2017-07-29T17:13:53.778Z,41.8
2017-07-29T17:14:55.175Z,41.8
2017-07-29T17:15:56.781Z,40.7
2017-07-29T17:16:58.459Z,40.1
2017-07-29T17:17:59.899Z,41.4
2017-07-29T17:19:01.390Z,41.3
2017-07-29T17:20:02.883Z,41.5